Terminal Aerodrome Forecast
Issued by NWS

Home | Current Version | Previous Version | Text Only | Print | Product List | Glossary On
Versions: 1 2 3 4 5 6 7 8 9 10 11 12 13 14 15 16 17 18 19 20 21 22
000
FTUS41 KBTV 041720
TAFMPV
TAF
KMPV 041720Z 0418/0518 23007KT P6SM VCSH BKN045 BKN100
     FM042300 VRB03KT P6SM SCT060 BKN120
     FM050600 VRB02KT 3SM BR VCSH BKN050 OVC100
      TEMPO 0507/0511 1/2SM FG BKN001
     FM051300 28005KT P6SM SCT050 BKN100=

USA.gov is the U.S. government's official web portal to all federal, state and local government web resources and services.